CheckWX is a tool to help pilots better visualize weather data.  It is not intended as a substitute for an official pre-flight weather briefing.

11:33:37 UTC

LIMP METAR
Parma Airport
Parma, Italy
Current

2 hours ago

LIMP 290950Z 09003KT 020V120 CAVOK 15/13 Q1013
Observed
Mar-29 @ 09:50 UTC
Wind
  • 090° at 3 KTS
Visibility
10,000+ meters
Flight Rules
VFR
Cloud Levels
  • Clear skies
Temperature
15°C / 59°F
Dewpoint
13°C / 55°F
Humidity
88%
Altimeter
29.91" Hg
Pressure
1012.92 hPa
Previous

3 hours ago

LIMP 290850Z VRB01KT 9999 SCT060 13/11 Q1013
Observed
Mar-29 @ 08:50 UTC
Wind
  • Variable at 1 KTS
Visibility
10,000+ meters
Flight Rules
VFR
Cloud Levels
  • Scattered at 6,000' AGL
Temperature
13°C / 55°F
Dewpoint
11°C / 52°F
Humidity
88%
Altimeter
29.91" Hg
Pressure
1012.92 hPa
Previous

4 hours ago

LIMP 290750Z 22003KT 190V270 CAVOK 12/11 Q1013
Observed
Mar-29 @ 07:50 UTC
Wind
  • 220° at 3 KTS
Visibility
10,000+ meters
Flight Rules
VFR
Cloud Levels
  • Clear skies
Temperature
12°C / 54°F
Dewpoint
11°C / 52°F
Humidity
94%
Altimeter
29.91" Hg
Pressure
1012.92 hPa